sensor_id;sensor_type;location;lat;lon;timestamp;P1;durP1;ratioP1;P2;durP2;ratioP2
77524;SDS011;66638;50.050;21.124;2023-02-21T00:00:09;4.20;;;2.40;;
77524;SDS011;66638;50.050;21.124;2023-02-21T00:03:23;5.60;;;2.70;;
77524;SDS011;66638;50.050;21.124;2023-02-21T00:06:31;5.10;;;2.60;;
77524;SDS011;66638;50.050;21.124;2023-02-21T00:09:38;5.80;;;2.60;;
77524;SDS011;66638;50.050;21.124;2023-02-21T00:12:47;3.90;;;2.70;;
77524;SDS011;66638;50.050;21.124;2023-02-21T00:15:54;3.90;;;2.30;;
77524;SDS011;66638;50.050;21.124;2023-02-21T00:19:02;4.80;;;2.70;;
77524;SDS011;66638;50.050;21.124;2023-02-21T00:22:10;5.10;;;2.80;;
77524;SDS011;66638;50.050;21.124;2023-02-21T00:25:17;3.50;;;2.30;;
77524;SDS011;66638;50.050;21.124;2023-02-21T00:28:25;5.30;;;2.60;;
77524;SDS011;66638;50.050;21.124;2023-02-21T00:31:32;6.90;;;2.70;;
77524;SDS011;66638;50.050;21.124;2023-02-21T00:34:39;4.40;;;2.30;;
77524;SDS011;66638;50.050;21.124;2023-02-21T00:37:49;3.20;;;1.80;;
77524;SDS011;66638;50.050;21.124;2023-02-21T00:40:57;5.90;;;2.20;;
77524;SDS011;66638;50.050;21.124;2023-02-21T00:44:04;6.10;;;2.40;;
77524;SDS011;66638;50.050;21.124;2023-02-21T00:47:11;4.20;;;2.30;;
77524;SDS011;66638;50.050;21.124;2023-02-21T00:50:18;3.80;;;2.30;;
77524;SDS011;66638;50.050;21.124;2023-02-21T00:53:25;5.30;;;2.00;;
77524;SDS011;66638;50.050;21.124;2023-02-21T00:56:32;4.20;;;2.40;;
77524;SDS011;66638;50.050;21.124;2023-02-21T00:59:39;4.50;;;2.40;;
77524;SDS011;66638;50.050;21.124;2023-02-21T01:02:47;5.00;;;2.40;;
77524;SDS011;66638;50.050;21.124;2023-02-21T01:05:54;7.70;;;2.80;;
77524;SDS011;66638;50.050;21.124;2023-02-21T01:09:01;4.30;;;2.00;;
77524;SDS011;66638;50.050;21.124;2023-02-21T01:12:09;5.30;;;2.40;;
77524;SDS011;66638;50.050;21.124;2023-02-21T01:15:16;3.30;;;1.90;;
77524;SDS011;66638;50.050;21.124;2023-02-21T01:18:23;7.00;;;2.30;;
77524;SDS011;66638;50.050;21.124;2023-02-21T01:21:30;5.10;;;2.50;;
77524;SDS011;66638;50.050;21.124;2023-02-21T01:24:39;5.10;;;2.20;;
77524;SDS011;66638;50.050;21.124;2023-02-21T01:27:47;6.10;;;2.20;;
77524;SDS011;66638;50.050;21.124;2023-02-21T01:30:56;3.70;;;2.40;;
77524;SDS011;66638;50.050;21.124;2023-02-21T01:34:04;3.50;;;2.00;;
77524;SDS011;66638;50.050;21.124;2023-02-21T01:37:11;4.10;;;2.50;;
77524;SDS011;66638;50.050;21.124;2023-02-21T01:40:19;5.70;;;2.80;;
77524;SDS011;66638;50.050;21.124;2023-02-21T01:43:26;5.90;;;3.30;;
77524;SDS011;66638;50.050;21.124;2023-02-21T01:46:34;4.90;;;2.30;;
77524;SDS011;66638;50.050;21.124;2023-02-21T01:49:41;4.30;;;2.80;;
77524;SDS011;66638;50.050;21.124;2023-02-21T01:52:48;4.10;;;2.30;;
77524;SDS011;66638;50.050;21.124;2023-02-21T01:55:55;5.30;;;2.30;;
77524;SDS011;66638;50.050;21.124;2023-02-21T01:59:04;5.00;;;2.50;;
77524;SDS011;66638;50.050;21.124;2023-02-21T02:02:15;4.50;;;2.50;;
77524;SDS011;66638;50.050;21.124;2023-02-21T02:05:25;5.00;;;2.20;;
77524;SDS011;66638;50.050;21.124;2023-02-21T02:08:34;5.70;;;2.40;;
77524;SDS011;66638;50.050;21.124;2023-02-21T02:12:03;5.60;;;2.10;;
77524;SDS011;66638;50.050;21.124;2023-02-21T02:15:14;4.50;;;2.40;;
77524;SDS011;66638;50.050;21.124;2023-02-21T02:18:17;5.30;;;2.20;;
77524;SDS011;66638;50.050;21.124;2023-02-21T02:34:52;4.20;;;2.00;;
77524;SDS011;66638;50.050;21.124;2023-02-21T02:44:29;3.40;;;1.80;;
77524;SDS011;66638;50.050;21.124;2023-02-21T02:47:23;5.50;;;2.10;;
77524;SDS011;66638;50.050;21.124;2023-02-21T02:53:02;3.00;;;1.60;;
77524;SDS011;66638;50.050;21.124;2023-02-21T02:55:56;3.30;;;1.90;;
77524;SDS011;66638;50.050;21.124;2023-02-21T02:58:51;3.30;;;1.60;;
77524;SDS011;66638;50.050;21.124;2023-02-21T03:01:47;3.00;;;1.50;;
77524;SDS011;66638;50.050;21.124;2023-02-21T03:04:56;2.80;;;1.20;;
77524;SDS011;66638;50.050;21.124;2023-02-21T03:08:10;5.20;;;1.60;;
77524;SDS011;66638;50.050;21.124;2023-02-21T03:11:21;3.50;;;1.30;;
77524;SDS011;66638;50.050;21.124;2023-02-21T03:14:12;2.80;;;1.40;;
77524;SDS011;66638;50.050;21.124;2023-02-21T03:17:05;2.10;;;1.50;;
77524;SDS011;66638;50.050;21.124;2023-02-21T03:19:55;4.90;;;1.80;;
77524;SDS011;66638;50.050;21.124;2023-02-21T03:22:44;3.30;;;1.30;;
77524;SDS011;66638;50.050;21.124;2023-02-21T03:25:32;3.40;;;1.60;;
77524;SDS011;66638;50.050;21.124;2023-02-21T03:28:21;3.50;;;1.50;;
77524;SDS011;66638;50.050;21.124;2023-02-21T03:31:10;3.00;;;1.70;;
77524;SDS011;66638;50.050;21.124;2023-02-21T03:33:59;3.90;;;2.20;;
77524;SDS011;66638;50.050;21.124;2023-02-21T03:36:48;3.00;;;1.70;;
77524;SDS011;66638;50.050;21.124;2023-02-21T03:39:35;3.20;;;1.70;;
77524;SDS011;66638;50.050;21.124;2023-02-21T03:42:23;5.10;;;2.00;;
77524;SDS011;66638;50.050;21.124;2023-02-21T03:45:10;4.50;;;2.50;;
77524;SDS011;66638;50.050;21.124;2023-02-21T03:47:58;5.60;;;2.20;;
77524;SDS011;66638;50.050;21.124;2023-02-21T03:50:45;6.40;;;2.40;;
77524;SDS011;66638;50.050;21.124;2023-02-21T03:53:34;5.00;;;2.80;;
77524;SDS011;66638;50.050;21.124;2023-02-21T03:56:22;4.50;;;2.70;;
77524;SDS011;66638;50.050;21.124;2023-02-21T03:59:29;5.60;;;2.40;;
77524;SDS011;66638;50.050;21.124;2023-02-21T04:02:17;5.20;;;2.70;;
77524;SDS011;66638;50.050;21.124;2023-02-21T04:05:05;5.20;;;2.90;;
77524;SDS011;66638;50.050;21.124;2023-02-21T04:07:53;8.50;;;3.30;;
77524;SDS011;66638;50.050;21.124;2023-02-21T04:10:41;6.30;;;3.30;;
77524;SDS011;66638;50.050;21.124;2023-02-21T04:13:28;6.20;;;2.70;;
77524;SDS011;66638;50.050;21.124;2023-02-21T04:16:16;6.30;;;2.60;;
77524;SDS011;66638;50.050;21.124;2023-02-21T04:21:52;5.30;;;2.50;;
77524;SDS011;66638;50.050;21.124;2023-02-21T04:24:39;5.00;;;2.40;;
77524;SDS011;66638;50.050;21.124;2023-02-21T04:27:27;6.00;;;3.20;;
77524;SDS011;66638;50.050;21.124;2023-02-21T04:30:16;5.00;;;2.90;;
77524;SDS011;66638;50.050;21.124;2023-02-21T04:33:04;6.40;;;3.00;;
77524;SDS011;66638;50.050;21.124;2023-02-21T04:35:51;5.40;;;2.90;;
77524;SDS011;66638;50.050;21.124;2023-02-21T04:38:44;5.50;;;2.60;;
77524;SDS011;66638;50.050;21.124;2023-02-21T04:41:31;4.80;;;2.50;;
77524;SDS011;66638;50.050;21.124;2023-02-21T04:44:19;5.80;;;2.80;;
77524;SDS011;66638;50.050;21.124;2023-02-21T04:47:07;3.60;;;2.50;;
77524;SDS011;66638;50.050;21.124;2023-02-21T04:52:41;3.10;;;2.00;;
77524;SDS011;66638;50.050;21.124;2023-02-21T04:55:28;4.60;;;2.60;;
77524;SDS011;66638;50.050;21.124;2023-02-21T05:01:03;5.60;;;2.20;;
77524;SDS011;66638;50.050;21.124;2023-02-21T05:03:50;3.30;;;2.00;;
77524;SDS011;66638;50.050;21.124;2023-02-21T05:06:37;3.40;;;2.60;;
77524;SDS011;66638;50.050;21.124;2023-02-21T05:09:25;4.00;;;2.40;;
77524;SDS011;66638;50.050;21.124;2023-02-21T05:12:12;3.60;;;2.40;;
77524;SDS011;66638;50.050;21.124;2023-02-21T05:15:00;3.70;;;2.30;;
77524;SDS011;66638;50.050;21.124;2023-02-21T05:17:47;4.00;;;2.30;;
77524;SDS011;66638;50.050;21.124;2023-02-21T05:20:35;3.30;;;2.10;;
77524;SDS011;66638;50.050;21.124;2023-02-21T05:26:19;3.90;;;2.10;;
77524;SDS011;66638;50.050;21.124;2023-02-21T05:29:07;3.40;;;2.50;;
77524;SDS011;66638;50.050;21.124;2023-02-21T05:31:54;5.40;;;3.10;;
77524;SDS011;66638;50.050;21.124;2023-02-21T05:34:42;5.30;;;2.30;;
77524;SDS011;66638;50.050;21.124;2023-02-21T05:37:30;4.00;;;2.50;;
77524;SDS011;66638;50.050;21.124;2023-02-21T05:40:17;4.50;;;1.60;;
77524;SDS011;66638;50.050;21.124;2023-02-21T05:43:05;4.30;;;2.70;;
77524;SDS011;66638;50.050;21.124;2023-02-21T05:45:52;8.70;;;4.90;;
77524;SDS011;66638;50.050;21.124;2023-02-21T05:48:39;3.60;;;2.60;;
77524;SDS011;66638;50.050;21.124;2023-02-21T05:51:27;5.10;;;2.30;;
77524;SDS011;66638;50.050;21.124;2023-02-21T05:54:21;4.00;;;2.30;;
77524;SDS011;66638;50.050;21.124;2023-02-21T05:57:08;4.90;;;2.60;;
77524;SDS011;66638;50.050;21.124;2023-02-21T05:59:56;3.60;;;2.40;;
77524;SDS011;66638;50.050;21.124;2023-02-21T06:02:44;3.40;;;2.10;;
77524;SDS011;66638;50.050;21.124;2023-02-21T06:05:31;4.00;;;2.40;;
77524;SDS011;66638;50.050;21.124;2023-02-21T06:08:19;2.90;;;1.90;;
77524;SDS011;66638;50.050;21.124;2023-02-21T06:11:06;5.90;;;2.40;;
77524;SDS011;66638;50.050;21.124;2023-02-21T06:13:54;4.00;;;4.10;;
77524;SDS011;66638;50.050;21.124;2023-02-21T06:16:44;5.30;;;2.20;;
77524;SDS011;66638;50.050;21.124;2023-02-21T06:19:31;3.80;;;2.30;;
77524;SDS011;66638;50.050;21.124;2023-02-21T06:25:06;4.10;;;2.00;;
77524;SDS011;66638;50.050;21.124;2023-02-21T06:27:54;3.20;;;2.20;;
77524;SDS011;66638;50.050;21.124;2023-02-21T06:30:41;4.40;;;2.00;;
77524;SDS011;66638;50.050;21.124;2023-02-21T06:33:28;3.30;;;2.30;;
77524;SDS011;66638;50.050;21.124;2023-02-21T06:36:18;4.00;;;2.00;;
77524;SDS011;66638;50.050;21.124;2023-02-21T06:39:08;3.30;;;2.00;;
77524;SDS011;66638;50.050;21.124;2023-02-21T06:41:56;4.80;;;2.50;;
77524;SDS011;66638;50.050;21.124;2023-02-21T06:44:44;4.00;;;2.40;;
77524;SDS011;66638;50.050;21.124;2023-02-21T06:47:32;3.70;;;2.20;;
77524;SDS011;66638;50.050;21.124;2023-02-21T06:50:23;3.80;;;2.60;;
77524;SDS011;66638;50.050;21.124;2023-02-21T06:55:57;4.70;;;3.50;;
77524;SDS011;66638;50.050;21.124;2023-02-21T06:58:45;3.40;;;2.40;;
77524;SDS011;66638;50.050;21.124;2023-02-21T07:01:32;3.20;;;2.10;;
77524;SDS011;66638;50.050;21.124;2023-02-21T07:04:20;6.00;;;3.30;;
77524;SDS011;66638;50.050;21.124;2023-02-21T07:07:08;3.20;;;2.30;;
77524;SDS011;66638;50.050;21.124;2023-02-21T07:09:55;4.60;;;2.90;;
77524;SDS011;66638;50.050;21.124;2023-02-21T07:12:43;6.00;;;3.40;;
77524;SDS011;66638;50.050;21.124;2023-02-21T07:15:30;3.30;;;2.20;;
77524;SDS011;66638;50.050;21.124;2023-02-21T07:18:17;4.40;;;2.70;;
77524;SDS011;66638;50.050;21.124;2023-02-21T07:21:05;4.00;;;2.60;;
77524;SDS011;66638;50.050;21.124;2023-02-21T07:23:52;6.40;;;3.10;;
77524;SDS011;66638;50.050;21.124;2023-02-21T07:26:39;5.90;;;2.90;;
77524;SDS011;66638;50.050;21.124;2023-02-21T07:29:27;4.70;;;3.00;;
77524;SDS011;66638;50.050;21.124;2023-02-21T07:32:15;4.60;;;3.10;;
77524;SDS011;66638;50.050;21.124;2023-02-21T07:35:03;7.50;;;3.10;;
77524;SDS011;66638;50.050;21.124;2023-02-21T07:37:51;6.60;;;4.10;;
77524;SDS011;66638;50.050;21.124;2023-02-21T07:40:39;10.40;;;6.10;;
77524;SDS011;66638;50.050;21.124;2023-02-21T07:43:27;5.60;;;3.70;;
77524;SDS011;66638;50.050;21.124;2023-02-21T07:46:16;6.70;;;4.30;;
77524;SDS011;66638;50.050;21.124;2023-02-21T07:49:03;7.10;;;3.60;;
77524;SDS011;66638;50.050;21.124;2023-02-21T07:51:51;6.10;;;3.30;;
77524;SDS011;66638;50.050;21.124;2023-02-21T07:54:38;5.80;;;3.60;;
77524;SDS011;66638;50.050;21.124;2023-02-21T07:57:26;6.40;;;3.40;;
77524;SDS011;66638;50.050;21.124;2023-02-21T08:00:13;5.80;;;3.70;;
77524;SDS011;66638;50.050;21.124;2023-02-21T08:03:01;6.60;;;3.50;;
77524;SDS011;66638;50.050;21.124;2023-02-21T08:05:49;4.80;;;2.70;;
77524;SDS011;66638;50.050;21.124;2023-02-21T08:08:36;4.90;;;3.20;;
77524;SDS011;66638;50.050;21.124;2023-02-21T08:11:24;6.60;;;4.40;;
77524;SDS011;66638;50.050;21.124;2023-02-21T08:14:11;4.70;;;3.10;;
77524;SDS011;66638;50.050;21.124;2023-02-21T08:16:58;10.20;;;5.20;;
77524;SDS011;66638;50.050;21.124;2023-02-21T08:19:46;7.00;;;4.10;;
77524;SDS011;66638;50.050;21.124;2023-02-21T08:22:35;5.00;;;3.60;;
77524;SDS011;66638;50.050;21.124;2023-02-21T08:25:22;9.90;;;4.90;;
77524;SDS011;66638;50.050;21.124;2023-02-21T08:28:10;6.40;;;3.30;;
77524;SDS011;66638;50.050;21.124;2023-02-21T08:30:57;9.00;;;4.70;;
77524;SDS011;66638;50.050;21.124;2023-02-21T08:33:45;10.60;;;6.80;;
77524;SDS011;66638;50.050;21.124;2023-02-21T08:36:33;12.80;;;9.50;;
77524;SDS011;66638;50.050;21.124;2023-02-21T08:39:22;9.90;;;8.70;;
77524;SDS011;66638;50.050;21.124;2023-02-21T08:42:11;7.10;;;4.40;;
77524;SDS011;66638;50.050;21.124;2023-02-21T08:44:59;5.70;;;3.20;;
77524;SDS011;66638;50.050;21.124;2023-02-21T08:47:47;6.40;;;3.10;;
77524;SDS011;66638;50.050;21.124;2023-02-21T08:50:35;7.90;;;4.70;;
77524;SDS011;66638;50.050;21.124;2023-02-21T08:53:22;21.80;;;14.50;;
77524;SDS011;66638;50.050;21.124;2023-02-21T08:56:09;44.90;;;21.70;;
77524;SDS011;66638;50.050;21.124;2023-02-21T08:58:57;5.10;;;3.80;;
77524;SDS011;66638;50.050;21.124;2023-02-21T09:01:45;5.70;;;4.40;;
77524;SDS011;66638;50.050;21.124;2023-02-21T09:04:34;4.20;;;2.80;;
77524;SDS011;66638;50.050;21.124;2023-02-21T09:07:21;4.30;;;3.40;;
77524;SDS011;66638;50.050;21.124;2023-02-21T09:10:10;5.80;;;3.70;;
77524;SDS011;66638;50.050;21.124;2023-02-21T09:12:57;4.80;;;3.80;;
77524;SDS011;66638;50.050;21.124;2023-02-21T09:18:32;4.40;;;2.50;;
77524;SDS011;66638;50.050;21.124;2023-02-21T09:21:19;5.00;;;3.80;;
77524;SDS011;66638;50.050;21.124;2023-02-21T09:24:06;3.60;;;2.70;;
77524;SDS011;66638;50.050;21.124;2023-02-21T09:29:41;83.40;;;34.40;;
77524;SDS011;66638;50.050;21.124;2023-02-21T09:32:28;12.10;;;5.80;;
77524;SDS011;66638;50.050;21.124;2023-02-21T09:35:15;8.90;;;5.70;;
77524;SDS011;66638;50.050;21.124;2023-02-21T09:38:05;3.70;;;2.60;;
77524;SDS011;66638;50.050;21.124;2023-02-21T09:40:57;3.30;;;2.30;;
77524;SDS011;66638;50.050;21.124;2023-02-21T09:43:47;3.70;;;2.40;;
77524;SDS011;66638;50.050;21.124;2023-02-21T09:46:38;3.90;;;2.00;;
77524;SDS011;66638;50.050;21.124;2023-02-21T09:49:29;5.80;;;3.10;;
77524;SDS011;66638;50.050;21.124;2023-02-21T09:52:33;8.40;;;5.10;;
77524;SDS011;66638;50.050;21.124;2023-02-21T09:55:29;3.20;;;2.20;;
77524;SDS011;66638;50.050;21.124;2023-02-21T09:58:20;3.10;;;2.30;;
77524;SDS011;66638;50.050;21.124;2023-02-21T10:01:09;5.20;;;3.50;;
77524;SDS011;66638;50.050;21.124;2023-02-21T10:10:46;3.70;;;2.30;;
77524;SDS011;66638;50.050;21.124;2023-02-21T10:13:41;4.00;;;2.30;;
77524;SDS011;66638;50.050;21.124;2023-02-21T10:16:39;7.50;;;2.30;;
77524;SDS011;66638;50.050;21.124;2023-02-21T10:19:32;4.80;;;2.10;;
77524;SDS011;66638;50.050;21.124;2023-02-21T10:22:26;7.10;;;3.90;;
77524;SDS011;66638;50.050;21.124;2023-02-21T10:25:19;4.50;;;3.30;;
77524;SDS011;66638;50.050;21.124;2023-02-21T10:28:16;3.80;;;2.40;;
77524;SDS011;66638;50.050;21.124;2023-02-21T10:31:06;7.10;;;3.50;;
77524;SDS011;66638;50.050;21.124;2023-02-21T10:33:55;3.70;;;2.00;;
77524;SDS011;66638;50.050;21.124;2023-02-21T10:36:45;7.30;;;4.30;;
77524;SDS011;66638;50.050;21.124;2023-02-21T10:39:34;33.30;;;14.30;;
77524;SDS011;66638;50.050;21.124;2023-02-21T10:42:28;22.40;;;13.00;;
77524;SDS011;66638;50.050;21.124;2023-02-21T10:45:23;4.90;;;3.40;;
77524;SDS011;66638;50.050;21.124;2023-02-21T10:48:15;3.80;;;2.60;;
77524;SDS011;66638;50.050;21.124;2023-02-21T10:51:08;3.50;;;2.40;;
77524;SDS011;66638;50.050;21.124;2023-02-21T10:57:07;4.90;;;2.50;;
77524;SDS011;66638;50.050;21.124;2023-02-21T10:59:56;3.20;;;2.10;;
77524;SDS011;66638;50.050;21.124;2023-02-21T11:02:44;4.80;;;2.00;;
77524;SDS011;66638;50.050;21.124;2023-02-21T11:05:36;3.30;;;2.10;;
77524;SDS011;66638;50.050;21.124;2023-02-21T11:11:32;3.90;;;2.80;;
77524;SDS011;66638;50.050;21.124;2023-02-21T11:14:23;4.00;;;2.40;;
77524;SDS011;66638;50.050;21.124;2023-02-21T11:17:19;3.60;;;1.90;;
77524;SDS011;66638;50.050;21.124;2023-02-21T11:20:19;13.20;;;6.60;;
77524;SDS011;66638;50.050;21.124;2023-02-21T11:23:17;7.50;;;3.80;;
77524;SDS011;66638;50.050;21.124;2023-02-21T11:26:08;30.00;;;12.50;;
77524;SDS011;66638;50.050;21.124;2023-02-21T11:29:04;4.10;;;2.70;;
77524;SDS011;66638;50.050;21.124;2023-02-21T11:31:57;5.00;;;3.50;;
77524;SDS011;66638;50.050;21.124;2023-02-21T11:34:46;5.30;;;2.80;;
77524;SDS011;66638;50.050;21.124;2023-02-21T11:37:39;4.00;;;2.60;;
77524;SDS011;66638;50.050;21.124;2023-02-21T11:40:42;3.90;;;2.30;;
77524;SDS011;66638;50.050;21.124;2023-02-21T11:43:31;4.10;;;1.80;;
77524;SDS011;66638;50.050;21.124;2023-02-21T11:49:35;4.40;;;3.00;;
77524;SDS011;66638;50.050;21.124;2023-02-21T11:56:02;4.20;;;2.60;;
77524;SDS011;66638;50.050;21.124;2023-02-21T12:08:50;5.80;;;2.80;;
77524;SDS011;66638;50.050;21.124;2023-02-21T12:11:57;5.00;;;2.40;;
77524;SDS011;66638;50.050;21.124;2023-02-21T12:15:12;5.50;;;2.30;;
77524;SDS011;66638;50.050;21.124;2023-02-21T12:28:02;3.50;;;1.90;;
77524;SDS011;66638;50.050;21.124;2023-02-21T12:34:12;3.80;;;1.90;;
77524;SDS011;66638;50.050;21.124;2023-02-21T12:37:24;4.90;;;2.50;;
77524;SDS011;66638;50.050;21.124;2023-02-21T12:40:49;4.90;;;2.60;;
77524;SDS011;66638;50.050;21.124;2023-02-21T12:44:06;26.30;;;7.30;;
77524;SDS011;66638;50.050;21.124;2023-02-21T12:47:03;17.10;;;4.80;;
77524;SDS011;66638;50.050;21.124;2023-02-21T12:50:00;9.30;;;3.50;;
77524;SDS011;66638;50.050;21.124;2023-02-21T12:52:57;28.50;;;7.00;;
77524;SDS011;66638;50.050;21.124;2023-02-21T12:59:23;6.10;;;3.30;;
77524;SDS011;66638;50.050;21.124;2023-02-21T13:02:20;4.40;;;2.50;;
77524;SDS011;66638;50.050;21.124;2023-02-21T13:05:17;4.90;;;2.50;;
77524;SDS011;66638;50.050;21.124;2023-02-21T13:08:22;4.20;;;3.00;;
77524;SDS011;66638;50.050;21.124;2023-02-21T13:11:17;4.10;;;2.90;;
77524;SDS011;66638;50.050;21.124;2023-02-21T13:14:09;4.20;;;2.50;;
77524;SDS011;66638;50.050;21.124;2023-02-21T13:17:00;6.70;;;3.40;;
77524;SDS011;66638;50.050;21.124;2023-02-21T13:20:02;4.60;;;2.40;;
77524;SDS011;66638;50.050;21.124;2023-02-21T13:26:56;3.60;;;2.00;;
77524;SDS011;66638;50.050;21.124;2023-02-21T13:30:19;3.40;;;2.00;;
77524;SDS011;66638;50.050;21.124;2023-02-21T13:33:36;3.60;;;2.60;;
77524;SDS011;66638;50.050;21.124;2023-02-21T13:39:30;4.10;;;2.20;;
77524;SDS011;66638;50.050;21.124;2023-02-21T13:42:22;6.20;;;3.00;;
77524;SDS011;66638;50.050;21.124;2023-02-21T13:45:16;7.60;;;4.10;;
77524;SDS011;66638;50.050;21.124;2023-02-21T13:50:58;7.30;;;3.80;;
77524;SDS011;66638;50.050;21.124;2023-02-21T13:56:56;5.40;;;3.50;;
77524;SDS011;66638;50.050;21.124;2023-02-21T13:59:43;5.60;;;3.60;;
77524;SDS011;66638;50.050;21.124;2023-02-21T14:02:31;9.20;;;4.50;;
77524;SDS011;66638;50.050;21.124;2023-02-21T14:05:20;8.80;;;4.50;;
77524;SDS011;66638;50.050;21.124;2023-02-21T14:08:18;10.50;;;4.10;;
77524;SDS011;66638;50.050;21.124;2023-02-21T14:11:34;7.80;;;4.20;;
77524;SDS011;66638;50.050;21.124;2023-02-21T14:14:27;6.00;;;3.40;;
77524;SDS011;66638;50.050;21.124;2023-02-21T14:17:17;6.70;;;3.10;;
77524;SDS011;66638;50.050;21.124;2023-02-21T14:20:14;5.20;;;2.80;;
77524;SDS011;66638;50.050;21.124;2023-02-21T14:23:02;5.50;;;2.50;;
77524;SDS011;66638;50.050;21.124;2023-02-21T14:25:54;5.20;;;2.80;;
77524;SDS011;66638;50.050;21.124;2023-02-21T14:35:32;5.40;;;2.50;;
77524;SDS011;66638;50.050;21.124;2023-02-21T14:38:22;6.70;;;3.80;;
77524;SDS011;66638;50.050;21.124;2023-02-21T14:41:28;5.70;;;2.20;;
77524;SDS011;66638;50.050;21.124;2023-02-21T14:44:27;6.10;;;3.60;;
77524;SDS011;66638;50.050;21.124;2023-02-21T14:47:27;6.90;;;2.60;;
77524;SDS011;66638;50.050;21.124;2023-02-21T14:50:42;7.00;;;3.10;;
77524;SDS011;66638;50.050;21.124;2023-02-21T15:07:50;21.40;;;13.10;;
77524;SDS011;66638;50.050;21.124;2023-02-21T15:10:46;5.00;;;3.70;;
77524;SDS011;66638;50.050;21.124;2023-02-21T15:13:34;12.00;;;10.80;;
77524;SDS011;66638;50.050;21.124;2023-02-21T15:16:22;5.00;;;3.00;;
77524;SDS011;66638;50.050;21.124;2023-02-21T15:19:18;4.20;;;2.60;;
77524;SDS011;66638;50.050;21.124;2023-02-21T15:22:16;7.40;;;2.90;;
77524;SDS011;66638;50.050;21.124;2023-02-21T15:25:12;4.60;;;3.00;;
77524;SDS011;66638;50.050;21.124;2023-02-21T15:28:02;5.00;;;2.60;;
77524;SDS011;66638;50.050;21.124;2023-02-21T15:30:56;5.00;;;3.20;;
77524;SDS011;66638;50.050;21.124;2023-02-21T15:33:50;6.80;;;3.30;;
77524;SDS011;66638;50.050;21.124;2023-02-21T15:36:38;93.30;;;47.70;;
77524;SDS011;66638;50.050;21.124;2023-02-21T15:39:28;217.10;;;107.30;;
77524;SDS011;66638;50.050;21.124;2023-02-21T15:42:18;75.80;;;41.40;;
77524;SDS011;66638;50.050;21.124;2023-02-21T15:45:10;57.30;;;31.80;;
77524;SDS011;66638;50.050;21.124;2023-02-21T15:48:02;49.10;;;32.50;;
77524;SDS011;66638;50.050;21.124;2023-02-21T15:50:50;39.30;;;26.30;;
77524;SDS011;66638;50.050;21.124;2023-02-21T15:53:38;11.70;;;7.40;;
77524;SDS011;66638;50.050;21.124;2023-02-21T15:56:25;15.40;;;9.70;;
77524;SDS011;66638;50.050;21.124;2023-02-21T15:59:19;9.90;;;6.90;;
77524;SDS011;66638;50.050;21.124;2023-02-21T16:02:14;10.60;;;7.20;;
77524;SDS011;66638;50.050;21.124;2023-02-21T16:05:20;47.10;;;24.30;;
77524;SDS011;66638;50.050;21.124;2023-02-21T16:08:13;70.70;;;43.90;;
77524;SDS011;66638;50.050;21.124;2023-02-21T16:11:03;17.60;;;10.90;;
77524;SDS011;66638;50.050;21.124;2023-02-21T16:13:50;10.30;;;7.20;;
77524;SDS011;66638;50.050;21.124;2023-02-21T16:16:37;101.60;;;69.00;;
77524;SDS011;66638;50.050;21.124;2023-02-21T16:19:26;14.30;;;8.10;;
77524;SDS011;66638;50.050;21.124;2023-02-21T16:22:26;7.10;;;4.80;;
77524;SDS011;66638;50.050;21.124;2023-02-21T16:25:18;10.30;;;5.40;;
77524;SDS011;66638;50.050;21.124;2023-02-21T16:28:10;15.20;;;9.70;;
77524;SDS011;66638;50.050;21.124;2023-02-21T16:30:59;113.50;;;45.60;;
77524;SDS011;66638;50.050;21.124;2023-02-21T16:33:48;78.10;;;37.80;;
77524;SDS011;66638;50.050;21.124;2023-02-21T16:36:36;113.10;;;57.20;;
77524;SDS011;66638;50.050;21.124;2023-02-21T16:39:26;82.40;;;33.60;;
77524;SDS011;66638;50.050;21.124;2023-02-21T16:42:14;145.30;;;58.90;;
77524;SDS011;66638;50.050;21.124;2023-02-21T16:45:02;77.30;;;28.20;;
77524;SDS011;66638;50.050;21.124;2023-02-21T16:47:54;172.30;;;67.10;;
77524;SDS011;66638;50.050;21.124;2023-02-21T16:50:47;275.80;;;92.40;;
77524;SDS011;66638;50.050;21.124;2023-02-21T16:53:35;87.50;;;32.00;;
77524;SDS011;66638;50.050;21.124;2023-02-21T16:56:23;45.60;;;18.30;;
77524;SDS011;66638;50.050;21.124;2023-02-21T16:59:12;15.80;;;7.60;;
77524;SDS011;66638;50.050;21.124;2023-02-21T17:02:01;121.10;;;59.50;;
77524;SDS011;66638;50.050;21.124;2023-02-21T17:04:51;17.30;;;9.40;;
77524;SDS011;66638;50.050;21.124;2023-02-21T17:07:38;330.90;;;100.20;;
77524;SDS011;66638;50.050;21.124;2023-02-21T17:10:25;259.50;;;109.00;;
77524;SDS011;66638;50.050;21.124;2023-02-21T17:13:13;199.40;;;79.70;;
77524;SDS011;66638;50.050;21.124;2023-02-21T17:16:00;198.90;;;69.10;;
77524;SDS011;66638;50.050;21.124;2023-02-21T17:18:47;67.20;;;26.50;;
77524;SDS011;66638;50.050;21.124;2023-02-21T17:21:34;86.80;;;33.10;;
77524;SDS011;66638;50.050;21.124;2023-02-21T17:24:22;173.40;;;87.80;;
77524;SDS011;66638;50.050;21.124;2023-02-21T17:27:10;101.70;;;37.90;;
77524;SDS011;66638;50.050;21.124;2023-02-21T17:29:57;115.00;;;44.70;;
77524;SDS011;66638;50.050;21.124;2023-02-21T17:32:45;35.30;;;12.90;;
77524;SDS011;66638;50.050;21.124;2023-02-21T17:35:33;81.80;;;31.50;;
77524;SDS011;66638;50.050;21.124;2023-02-21T17:38:20;160.70;;;60.80;;
77524;SDS011;66638;50.050;21.124;2023-02-21T17:43:55;71.20;;;28.80;;
77524;SDS011;66638;50.050;21.124;2023-02-21T17:46:52;189.50;;;77.00;;
77524;SDS011;66638;50.050;21.124;2023-02-21T17:49:40;60.00;;;27.00;;
77524;SDS011;66638;50.050;21.124;2023-02-21T17:52:28;27.30;;;12.20;;
77524;SDS011;66638;50.050;21.124;2023-02-21T17:55:17;113.50;;;43.20;;
77524;SDS011;66638;50.050;21.124;2023-02-21T17:58:06;61.30;;;22.90;;
77524;SDS011;66638;50.050;21.124;2023-02-21T18:00:55;87.20;;;37.00;;
77524;SDS011;66638;50.050;21.124;2023-02-21T18:03:43;19.20;;;8.80;;
77524;SDS011;66638;50.050;21.124;2023-02-21T18:06:32;16.70;;;7.20;;
77524;SDS011;66638;50.050;21.124;2023-02-21T18:09:20;18.70;;;8.90;;
77524;SDS011;66638;50.050;21.124;2023-02-21T18:12:07;78.60;;;36.80;;
77524;SDS011;66638;50.050;21.124;2023-02-21T18:14:54;27.90;;;15.10;;
77524;SDS011;66638;50.050;21.124;2023-02-21T18:17:41;23.80;;;13.20;;
77524;SDS011;66638;50.050;21.124;2023-02-21T18:20:31;32.00;;;17.50;;
77524;SDS011;66638;50.050;21.124;2023-02-21T18:23:18;20.10;;;9.50;;
77524;SDS011;66638;50.050;21.124;2023-02-21T18:26:06;22.30;;;10.90;;
77524;SDS011;66638;50.050;21.124;2023-02-21T18:28:54;16.10;;;4.80;;
77524;SDS011;66638;50.050;21.124;2023-02-21T18:31:41;17.90;;;7.50;;
77524;SDS011;66638;50.050;21.124;2023-02-21T18:37:16;11.20;;;5.00;;
77524;SDS011;66638;50.050;21.124;2023-02-21T18:40:04;11.60;;;4.30;;
77524;SDS011;66638;50.050;21.124;2023-02-21T18:42:52;9.80;;;4.20;;
77524;SDS011;66638;50.050;21.124;2023-02-21T18:48:26;7.60;;;3.40;;
77524;SDS011;66638;50.050;21.124;2023-02-21T18:54:02;12.00;;;5.30;;
77524;SDS011;66638;50.050;21.124;2023-02-21T18:56:50;11.70;;;3.80;;
77524;SDS011;66638;50.050;21.124;2023-02-21T18:59:38;7.00;;;2.80;;
77524;SDS011;66638;50.050;21.124;2023-02-21T19:02:25;7.10;;;2.60;;
77524;SDS011;66638;50.050;21.124;2023-02-21T19:05:14;7.90;;;2.80;;
77524;SDS011;66638;50.050;21.124;2023-02-21T19:08:02;11.50;;;3.50;;
77524;SDS011;66638;50.050;21.124;2023-02-21T19:10:50;9.50;;;3.50;;
77524;SDS011;66638;50.050;21.124;2023-02-21T19:13:38;9.50;;;3.30;;
77524;SDS011;66638;50.050;21.124;2023-02-21T19:16:25;13.20;;;4.70;;